WON1234 WARR-WADD
Flight info
| Callsign | WON1234 |
|---|---|
| Flight time | 0h 46m |
| Altitude | 17000 |
| Route | MOVMO |
| Aircraft | AT76/M-SDFGIRY/S |
Departure
| Time | 2026-05-04 03:06 |
|---|---|
| Airport | Juanda International Airport (WARR) |
Arrival
| Time | 2026-05-04 03:52 |
|---|---|
| Airport | Denpasar I Gusti Ngurah Rai International Airport (WADD) |
| Time | Latitude | Longitude | Altitude | Speed | Heading |
|---|---|---|---|---|---|
| 2026-05-04 02:28 | -7.37534 | 112.79093 | 5 ft | 0 kts | 9° |
| 2026-05-04 02:47 | -7.37537 | 112.79092 | 6 ft | 2 kts | 9° |
| 2026-05-04 02:47 | -7.37551 | 112.79090 | 6 ft | 2 kts | 10° |
| 2026-05-04 02:48 | -7.37564 | 112.79088 | 6 ft | 2 kts | 10° |
| 2026-05-04 02:48 | -7.37578 | 112.79085 | 6 ft | 2 kts | 9° |
| 2026-05-04 02:48 | -7.37591 | 112.79083 | 6 ft | 2 kts | 7° |
| 2026-05-04 02:48 | -7.37603 | 112.79082 | 6 ft | 2 kts | 358° |
| 2026-05-04 02:49 | -7.37610 | 112.79082 | 5 ft | 1 kts | 339° |
| 2026-05-04 02:49 | -7.37615 | 112.79085 | 5 ft | 1 kts | 309° |
| 2026-05-04 02:49 | -7.37618 | 112.79089 | 5 ft | 1 kts | 289° |
| 2026-05-04 02:49 | -7.37620 | 112.79094 | 5 ft | 1 kts | 282° |
| 2026-05-04 02:50 | -7.37620 | 112.79099 | 5 ft | 0 kts | 280° |
| 2026-05-04 02:50 | -7.37620 | 112.79095 | 5 ft | 2 kts | 275° |
| 2026-05-04 02:50 | -7.37616 | 112.79073 | 5 ft | 3 kts | 282° |
| 2026-05-04 02:50 | -7.37613 | 112.79050 | 5 ft | 0 kts | 273° |
| 2026-05-04 02:54 | -7.37613 | 112.79048 | 5 ft | 2 kts | 274° |
| 2026-05-04 02:55 | -7.37594 | 112.78942 | 5 ft | 4 kts | 279° |
| 2026-05-04 02:55 | -7.37594 | 112.78941 | 5 ft | 0 kts | 277° |
| 2026-05-04 02:56 | -7.37594 | 112.78936 | 5 ft | 0 kts | 277° |
| 2026-05-04 02:57 | -7.37594 | 112.78920 | 5 ft | 3 kts | 268° |
| 2026-05-04 02:58 | -7.37611 | 112.78909 | 5 ft | 4 kts | 192° |
| 2026-05-04 02:58 | -7.37655 | 112.78903 | 5 ft | 8 kts | 187° |
| 2026-05-04 02:58 | -7.37721 | 112.78895 | 5 ft | 11 kts | 187° |
| 2026-05-04 02:58 | -7.37798 | 112.78882 | 5 ft | 12 kts | 201° |
| 2026-05-04 02:59 | -7.37828 | 112.78810 | 5 ft | 12 kts | 278° |
| 2026-05-04 02:59 | -7.37813 | 112.78722 | 5 ft | 13 kts | 280° |
| 2026-05-04 02:59 | -7.37798 | 112.78629 | 5 ft | 14 kts | 278° |
| 2026-05-04 02:59 | -7.37797 | 112.78624 | 5 ft | 14 kts | 278° |
| 2026-05-04 03:00 | -7.37792 | 112.78592 | 5 ft | 14 kts | 279° |
| 2026-05-04 03:00 | -7.37776 | 112.78493 | 6 ft | 15 kts | 279° |
| 2026-05-04 03:00 | -7.37758 | 112.78381 | 6 ft | 21 kts | 281° |
| 2026-05-04 03:01 | -7.37736 | 112.78243 | 6 ft | 19 kts | 279° |
| 2026-05-04 03:01 | -7.37716 | 112.78118 | 6 ft | 17 kts | 279° |
| 2026-05-04 03:01 | -7.37697 | 112.78001 | 6 ft | 17 kts | 279° |
| 2026-05-04 03:01 | -7.37679 | 112.77888 | 6 ft | 16 kts | 279° |
| 2026-05-04 03:02 | -7.37660 | 112.77778 | 6 ft | 16 kts | 277° |
| 2026-05-04 03:02 | -7.37644 | 112.77669 | 6 ft | 16 kts | 278° |
| 2026-05-04 03:02 | -7.37621 | 112.77531 | 5 ft | 20 kts | 279° |
| 2026-05-04 03:02 | -7.37623 | 112.77401 | 5 ft | 18 kts | 231° |
| 2026-05-04 03:03 | -7.37727 | 112.77372 | 5 ft | 14 kts | 188° |
| 2026-05-04 03:03 | -7.37770 | 112.77368 | 5 ft | 2 kts | 160° |
| 2026-05-04 03:03 | -7.37773 | 112.77373 | 5 ft | 0 kts | 118° |
| 2026-05-04 03:03 | -7.37773 | 112.77382 | 5 ft | 3 kts | 91° |
| 2026-05-04 03:04 | -7.37775 | 112.77397 | 6 ft | 1 kts | 99° |
| 2026-05-04 03:04 | -7.37776 | 112.77405 | 6 ft | 1 kts | 99° |
| 2026-05-04 03:04 | -7.37778 | 112.77417 | 6 ft | 2 kts | 99° |
| 2026-05-04 03:04 | -7.37781 | 112.77432 | 6 ft | 2 kts | 100° |
| 2026-05-04 03:05 | -7.37785 | 112.77454 | 6 ft | 11 kts | 100° |
| 2026-05-04 03:05 | -7.37829 | 112.77733 | 5 ft | 68 kts | 99° |
| 2026-05-04 03:05 | -7.37933 | 112.78381 | 5 ft | 116 kts | 100° |
| 2026-05-04 03:05 | -7.38086 | 112.79268 | 235 ft | 132 kts | 97° |
| 2026-05-04 03:06 | -7.38239 | 112.80186 | 694 ft | 133 kts | 97° |
| 2026-05-04 03:06 | -7.38375 | 112.81179 | 830 ft | 155 kts | 97° |
| 2026-05-04 03:06 | -7.38531 | 112.82328 | 889 ft | 174 kts | 98° |
| 2026-05-04 03:06 | -7.38720 | 112.83538 | 1271 ft | 175 kts | 100° |
| 2026-05-04 03:07 | -7.38925 | 112.84751 | 1643 ft | 175 kts | 100° |
| 2026-05-04 03:07 | -7.39126 | 112.85967 | 1979 ft | 176 kts | 100° |
| 2026-05-04 03:07 | -7.39322 | 112.87181 | 2326 ft | 177 kts | 100° |
| 2026-05-04 03:07 | -7.39707 | 112.88330 | 2627 ft | 174 kts | 129° |
| 2026-05-04 03:08 | -7.40504 | 112.89241 | 2902 ft | 177 kts | 131° |
| 2026-05-04 03:08 | -7.41288 | 112.90201 | 3236 ft | 178 kts | 128° |
| 2026-05-04 03:08 | -7.42024 | 112.91208 | 3536 ft | 178 kts | 125° |
| 2026-05-04 03:08 | -7.42711 | 112.92252 | 3841 ft | 179 kts | 122° |
| 2026-05-04 03:09 | -7.43369 | 112.93321 | 4159 ft | 180 kts | 122° |
| 2026-05-04 03:09 | -7.44028 | 112.94399 | 4464 ft | 180 kts | 122° |
| 2026-05-04 03:09 | -7.44688 | 112.95476 | 4772 ft | 181 kts | 122° |
| 2026-05-04 03:09 | -7.45350 | 112.96561 | 5053 ft | 182 kts | 121° |
| 2026-05-04 03:10 | -7.46009 | 112.97638 | 5332 ft | 183 kts | 122° |
| 2026-05-04 03:10 | -7.46678 | 112.98728 | 5617 ft | 183 kts | 121° |
| 2026-05-04 03:10 | -7.47350 | 112.99826 | 5899 ft | 184 kts | 121° |
| 2026-05-04 03:10 | -7.48025 | 113.00926 | 6181 ft | 185 kts | 121° |
| 2026-05-04 03:11 | -7.48703 | 113.02030 | 6440 ft | 186 kts | 121° |
| 2026-05-04 03:11 | -7.49382 | 113.03142 | 6690 ft | 186 kts | 121° |
| 2026-05-04 03:11 | -7.50067 | 113.04257 | 6943 ft | 187 kts | 121° |
| 2026-05-04 03:11 | -7.50751 | 113.05381 | 7181 ft | 189 kts | 121° |
| 2026-05-04 03:12 | -7.51439 | 113.06509 | 7432 ft | 189 kts | 121° |
| 2026-05-04 03:12 | -7.52136 | 113.07641 | 7674 ft | 190 kts | 121° |
| 2026-05-04 03:12 | -7.52834 | 113.08776 | 7917 ft | 191 kts | 121° |
| 2026-05-04 03:12 | -7.53533 | 113.09918 | 8154 ft | 192 kts | 121° |
| 2026-05-04 03:13 | -7.54235 | 113.11065 | 8387 ft | 192 kts | 121° |
| 2026-05-04 03:13 | -7.54940 | 113.12215 | 8610 ft | 193 kts | 121° |
| 2026-05-04 03:13 | -7.55638 | 113.13356 | 8832 ft | 194 kts | 121° |
| 2026-05-04 03:13 | -7.56348 | 113.14515 | 9057 ft | 195 kts | 121° |
| 2026-05-04 03:14 | -7.57060 | 113.15681 | 9286 ft | 196 kts | 121° |
| 2026-05-04 03:14 | -7.57776 | 113.16851 | 9516 ft | 196 kts | 121° |
| 2026-05-04 03:14 | -7.58498 | 113.18030 | 9735 ft | 197 kts | 121° |
| 2026-05-04 03:14 | -7.59223 | 113.19212 | 9929 ft | 198 kts | 121° |
| 2026-05-04 03:15 | -7.59945 | 113.20393 | 10124 ft | 198 kts | 121° |
| 2026-05-04 03:15 | -7.60668 | 113.21577 | 10313 ft | 199 kts | 121° |
| 2026-05-04 03:15 | -7.61395 | 113.22764 | 10497 ft | 199 kts | 121° |
| 2026-05-04 03:15 | -7.62123 | 113.23954 | 10695 ft | 199 kts | 121° |
| 2026-05-04 03:16 | -7.62843 | 113.25128 | 10888 ft | 199 kts | 121° |
| 2026-05-04 03:16 | -7.63574 | 113.26324 | 11083 ft | 200 kts | 121° |
| 2026-05-04 03:16 | -7.64305 | 113.27518 | 11274 ft | 200 kts | 121° |
| 2026-05-04 03:16 | -7.65036 | 113.28714 | 11466 ft | 201 kts | 121° |
| 2026-05-04 03:17 | -7.65771 | 113.29914 | 11652 ft | 201 kts | 121° |
| 2026-05-04 03:17 | -7.66507 | 113.31117 | 11837 ft | 202 kts | 121° |
| 2026-05-04 03:17 | -7.67243 | 113.32324 | 12017 ft | 202 kts | 121° |
| 2026-05-04 03:17 | -7.67982 | 113.33533 | 12197 ft | 202 kts | 121° |
| 2026-05-04 03:18 | -7.68723 | 113.34742 | 12377 ft | 203 kts | 121° |
| 2026-05-04 03:18 | -7.69454 | 113.35939 | 12548 ft | 203 kts | 121° |
| 2026-05-04 03:18 | -7.70207 | 113.37171 | 12738 ft | 204 kts | 121° |
| 2026-05-04 03:18 | -7.70943 | 113.38374 | 12923 ft | 204 kts | 121° |
| 2026-05-04 03:19 | -7.71685 | 113.39591 | 13108 ft | 204 kts | 121° |
| 2026-05-04 03:19 | -7.72431 | 113.40810 | 13285 ft | 204 kts | 121° |
| 2026-05-04 03:19 | -7.73177 | 113.42033 | 13451 ft | 205 kts | 121° |
| 2026-05-04 03:19 | -7.73671 | 113.42842 | 13576 ft | 205 kts | 121° |
| 2026-05-04 03:20 | -7.74417 | 113.44066 | 13764 ft | 205 kts | 121° |
| 2026-05-04 03:20 | -7.75421 | 113.45709 | 13952 ft | 206 kts | 121° |
| 2026-05-04 03:20 | -7.75920 | 113.46524 | 14053 ft | 206 kts | 121° |
| 2026-05-04 03:20 | -7.76678 | 113.47763 | 14184 ft | 207 kts | 121° |
| 2026-05-04 03:21 | -7.77435 | 113.49004 | 14330 ft | 208 kts | 121° |
| 2026-05-04 03:21 | -7.78195 | 113.50247 | 14461 ft | 209 kts | 121° |
| 2026-05-04 03:21 | -7.78960 | 113.51499 | 14597 ft | 209 kts | 121° |
| 2026-05-04 03:21 | -7.79724 | 113.52752 | 14743 ft | 210 kts | 121° |
| 2026-05-04 03:22 | -7.80482 | 113.53993 | 14880 ft | 211 kts | 121° |
| 2026-05-04 03:22 | -7.81255 | 113.55258 | 15000 ft | 212 kts | 121° |
| 2026-05-04 03:22 | -7.82027 | 113.56524 | 15156 ft | 212 kts | 121° |
| 2026-05-04 03:22 | -7.82802 | 113.57794 | 15330 ft | 213 kts | 121° |
| 2026-05-04 03:23 | -7.83581 | 113.59070 | 15493 ft | 213 kts | 121° |
| 2026-05-04 03:23 | -7.84360 | 113.60346 | 15706 ft | 214 kts | 121° |
| 2026-05-04 03:23 | -7.85143 | 113.61629 | 15828 ft | 215 kts | 121° |
| 2026-05-04 03:23 | -7.85917 | 113.62896 | 15954 ft | 215 kts | 121° |
| 2026-05-04 03:24 | -7.86703 | 113.64186 | 16069 ft | 215 kts | 121° |
| 2026-05-04 03:24 | -7.87487 | 113.65472 | 16169 ft | 216 kts | 121° |
| 2026-05-04 03:24 | -7.88276 | 113.66766 | 16282 ft | 216 kts | 121° |
| 2026-05-04 03:24 | -7.89068 | 113.68060 | 16400 ft | 217 kts | 121° |
| 2026-05-04 03:25 | -7.89861 | 113.69361 | 16501 ft | 218 kts | 122° |
| 2026-05-04 03:25 | -7.90644 | 113.70647 | 16627 ft | 218 kts | 121° |
| 2026-05-04 03:25 | -7.91441 | 113.71954 | 16778 ft | 218 kts | 121° |
| 2026-05-04 03:25 | -7.92237 | 113.73263 | 16873 ft | 220 kts | 122° |
| 2026-05-04 03:26 | -7.93049 | 113.74591 | 16919 ft | 224 kts | 122° |
| 2026-05-04 03:26 | -7.93875 | 113.75946 | 16946 ft | 229 kts | 121° |
| 2026-05-04 03:26 | -7.94719 | 113.77329 | 16964 ft | 234 kts | 121° |
| 2026-05-04 03:26 | -7.95579 | 113.78740 | 16960 ft | 238 kts | 121° |
| 2026-05-04 03:27 | -7.96451 | 113.80175 | 16961 ft | 241 kts | 122° |
| 2026-05-04 03:27 | -7.97337 | 113.81624 | 16959 ft | 244 kts | 122° |
| 2026-05-04 03:27 | -7.98230 | 113.83090 | 16961 ft | 246 kts | 122° |
| 2026-05-04 03:27 | -7.99130 | 113.84567 | 16972 ft | 248 kts | 122° |
| 2026-05-04 03:28 | -8.00025 | 113.86034 | 16968 ft | 250 kts | 121° |
| 2026-05-04 03:28 | -8.00937 | 113.87531 | 16962 ft | 251 kts | 122° |
| 2026-05-04 03:28 | -8.01954 | 113.88940 | 16974 ft | 249 kts | 139° |
| 2026-05-04 03:28 | -8.03492 | 113.89728 | 16967 ft | 251 kts | 162° |
| 2026-05-04 03:29 | -8.05213 | 113.90083 | 16962 ft | 253 kts | 171° |
| 2026-05-04 03:29 | -8.06968 | 113.90266 | 16971 ft | 254 kts | 174° |
| 2026-05-04 03:29 | -8.08736 | 113.90415 | 16977 ft | 255 kts | 174° |
| 2026-05-04 03:29 | -8.10476 | 113.90699 | 16977 ft | 253 kts | 156° |
| 2026-05-04 03:30 | -8.11821 | 113.91790 | 16987 ft | 251 kts | 123° |
| 2026-05-04 03:30 | -8.12636 | 113.93339 | 16970 ft | 251 kts | 116° |
| 2026-05-04 03:30 | -8.13403 | 113.94924 | 16957 ft | 251 kts | 117° |
| 2026-05-04 03:30 | -8.14230 | 113.96474 | 16968 ft | 251 kts | 121° |
| 2026-05-04 03:31 | -8.15153 | 113.97970 | 16969 ft | 251 kts | 123° |
| 2026-05-04 03:31 | -8.16136 | 113.99443 | 16973 ft | 252 kts | 124° |
| 2026-05-04 03:31 | -8.17108 | 114.00912 | 16969 ft | 252 kts | 124° |
| 2026-05-04 03:31 | -8.18072 | 114.02391 | 16971 ft | 252 kts | 123° |
| 2026-05-04 03:32 | -8.19029 | 114.03872 | 16972 ft | 252 kts | 123° |
| 2026-05-04 03:32 | -8.19986 | 114.05349 | 16973 ft | 252 kts | 123° |
| 2026-05-04 03:32 | -8.20949 | 114.06830 | 16976 ft | 252 kts | 123° |
| 2026-05-04 03:32 | -8.21902 | 114.08299 | 16975 ft | 252 kts | 123° |
| 2026-05-04 03:33 | -8.22863 | 114.09782 | 16974 ft | 252 kts | 123° |
| 2026-05-04 03:33 | -8.23824 | 114.11265 | 16970 ft | 252 kts | 123° |
| 2026-05-04 03:33 | -8.24786 | 114.12749 | 16970 ft | 252 kts | 123° |
| 2026-05-04 03:33 | -8.25750 | 114.14234 | 16971 ft | 253 kts | 123° |
| 2026-05-04 03:34 | -8.26715 | 114.15723 | 16969 ft | 253 kts | 123° |
| 2026-05-04 03:34 | -8.27678 | 114.17211 | 16967 ft | 253 kts | 123° |
| 2026-05-04 03:34 | -8.28632 | 114.18682 | 16966 ft | 253 kts | 123° |
| 2026-05-04 03:34 | -8.29596 | 114.20169 | 16968 ft | 253 kts | 123° |
| 2026-05-04 03:35 | -8.30560 | 114.21655 | 16969 ft | 253 kts | 123° |
| 2026-05-04 03:35 | -8.31524 | 114.23145 | 16972 ft | 253 kts | 123° |
| 2026-05-04 03:35 | -8.32492 | 114.24637 | 16970 ft | 254 kts | 123° |
| 2026-05-04 03:35 | -8.33462 | 114.26135 | 16966 ft | 255 kts | 123° |
| 2026-05-04 03:36 | -8.34431 | 114.27632 | 16965 ft | 255 kts | 124° |
| 2026-05-04 03:36 | -8.35404 | 114.29133 | 16965 ft | 255 kts | 123° |
| 2026-05-04 03:36 | -8.36377 | 114.30635 | 16962 ft | 255 kts | 123° |
| 2026-05-04 03:36 | -8.37350 | 114.32136 | 16949 ft | 255 kts | 123° |
| 2026-05-04 03:37 | -8.38319 | 114.33634 | 16959 ft | 255 kts | 124° |
| 2026-05-04 03:37 | -8.39290 | 114.35133 | 16960 ft | 255 kts | 123° |
| 2026-05-04 03:37 | -8.40247 | 114.36615 | 16945 ft | 255 kts | 124° |
| 2026-05-04 03:37 | -8.41217 | 114.38111 | 16890 ft | 256 kts | 123° |
| 2026-05-04 03:38 | -8.42217 | 114.39656 | 16542 ft | 269 kts | 123° |
| 2026-05-04 03:38 | -8.43260 | 114.41269 | 16180 ft | 279 kts | 123° |
| 2026-05-04 03:38 | -8.44342 | 114.42936 | 15813 ft | 288 kts | 123° |
| 2026-05-04 03:38 | -8.45448 | 114.44647 | 15433 ft | 292 kts | 123° |
| 2026-05-04 03:39 | -8.46558 | 114.46358 | 15062 ft | 289 kts | 123° |
| 2026-05-04 03:39 | -8.47654 | 114.48059 | 14693 ft | 287 kts | 123° |
| 2026-05-04 03:39 | -8.48742 | 114.49747 | 14329 ft | 285 kts | 123° |
| 2026-05-04 03:39 | -8.49822 | 114.51418 | 13972 ft | 284 kts | 123° |
| 2026-05-04 03:40 | -8.50897 | 114.53081 | 13604 ft | 282 kts | 123° |
| 2026-05-04 03:40 | -8.51969 | 114.54739 | 13207 ft | 281 kts | 123° |
| 2026-05-04 03:40 | -8.53025 | 114.56370 | 12825 ft | 280 kts | 123° |
| 2026-05-04 03:40 | -8.54083 | 114.58011 | 12450 ft | 279 kts | 123° |
| 2026-05-04 03:41 | -8.55142 | 114.59650 | 12069 ft | 278 kts | 123° |
| 2026-05-04 03:41 | -8.56198 | 114.61283 | 11709 ft | 277 kts | 123° |
| 2026-05-04 03:41 | -8.57251 | 114.62913 | 11334 ft | 276 kts | 123° |
| 2026-05-04 03:41 | -8.58300 | 114.64537 | 10970 ft | 276 kts | 122° |
| 2026-05-04 03:42 | -8.59348 | 114.66159 | 10615 ft | 275 kts | 122° |
| 2026-05-04 03:42 | -8.60389 | 114.67769 | 10265 ft | 272 kts | 122° |
| 2026-05-04 03:42 | -8.61419 | 114.69361 | 9920 ft | 269 kts | 122° |
| 2026-05-04 03:42 | -8.62435 | 114.70936 | 9546 ft | 266 kts | 122° |
| 2026-05-04 03:43 | -8.63429 | 114.72478 | 9178 ft | 264 kts | 122° |
| 2026-05-04 03:43 | -8.64429 | 114.74026 | 8808 ft | 262 kts | 122° |
| 2026-05-04 03:43 | -8.65421 | 114.75561 | 8452 ft | 260 kts | 122° |
| 2026-05-04 03:43 | -8.66407 | 114.77092 | 8072 ft | 259 kts | 122° |
| 2026-05-04 03:44 | -8.67396 | 114.78620 | 7636 ft | 260 kts | 122° |
| 2026-05-04 03:44 | -8.68381 | 114.80147 | 7206 ft | 259 kts | 122° |
| 2026-05-04 03:44 | -8.69356 | 114.81662 | 6778 ft | 254 kts | 122° |
| 2026-05-04 03:44 | -8.70314 | 114.83148 | 6361 ft | 250 kts | 122° |
| 2026-05-04 03:45 | -8.71257 | 114.84611 | 5931 ft | 247 kts | 122° |
| 2026-05-04 03:45 | -8.72192 | 114.86059 | 5498 ft | 245 kts | 122° |
| 2026-05-04 03:45 | -8.73115 | 114.87492 | 5073 ft | 242 kts | 123° |
| 2026-05-04 03:45 | -8.74005 | 114.88871 | 4659 ft | 225 kts | 122° |
| 2026-05-04 03:46 | -8.74832 | 114.90159 | 4253 ft | 221 kts | 122° |
| 2026-05-04 03:46 | -8.75529 | 114.91508 | 3994 ft | 213 kts | 102° |
| 2026-05-04 03:46 | -8.75620 | 114.92972 | 3778 ft | 206 kts | 90° |
| 2026-05-04 03:46 | -8.75586 | 114.94411 | 3555 ft | 204 kts | 89° |
| 2026-05-04 03:47 | -8.75545 | 114.95848 | 3335 ft | 204 kts | 89° |
| 2026-05-04 03:47 | -8.75509 | 114.97285 | 3121 ft | 205 kts | 90° |
| 2026-05-04 03:47 | -8.75496 | 114.98733 | 2888 ft | 206 kts | 90° |
| 2026-05-04 03:47 | -8.75480 | 115.00143 | 2665 ft | 195 kts | 90° |
| 2026-05-04 03:48 | -8.75450 | 115.01465 | 2452 ft | 181 kts | 89° |
| 2026-05-04 03:48 | -8.75404 | 115.02697 | 2256 ft | 170 kts | 89° |
| 2026-05-04 03:48 | -8.75351 | 115.03857 | 2085 ft | 159 kts | 89° |
| 2026-05-04 03:48 | -8.75302 | 115.04953 | 1896 ft | 154 kts | 89° |
| 2026-05-04 03:49 | -8.75256 | 115.06001 | 1775 ft | 142 kts | 89° |
| 2026-05-04 03:49 | -8.75210 | 115.06947 | 1643 ft | 127 kts | 89° |
| 2026-05-04 03:49 | -8.75170 | 115.07793 | 1476 ft | 115 kts | 89° |
| 2026-05-04 03:49 | -8.75134 | 115.08560 | 1388 ft | 103 kts | 90° |
| 2026-05-04 03:50 | -8.75099 | 115.09275 | 1287 ft | 105 kts | 90° |
| 2026-05-04 03:50 | -8.75063 | 115.10042 | 1203 ft | 108 kts | 93° |
| 2026-05-04 03:50 | -8.75080 | 115.10759 | 1032 ft | 101 kts | 90° |
| 2026-05-04 03:50 | -8.75054 | 115.11485 | 851 ft | 107 kts | 92° |
| 2026-05-04 03:51 | -8.75029 | 115.12247 | 755 ft | 111 kts | 90° |
| 2026-05-04 03:51 | -8.75001 | 115.13024 | 589 ft | 108 kts | 89° |
| 2026-05-04 03:51 | -8.74962 | 115.13767 | 445 ft | 103 kts | 91° |
| 2026-05-04 03:51 | -8.74934 | 115.14503 | 248 ft | 108 kts | 91° |
| 2026-05-04 03:52 | -8.74901 | 115.15240 | 97 ft | 102 kts | 89° |
| 2026-05-04 03:52 | -8.74872 | 115.15962 | 25 ft | 97 kts | 89° |
| 2026-05-04 03:52 | -8.74851 | 115.16462 | 24 ft | 42 kts | 88° |
| 2026-05-04 03:52 | -8.74842 | 115.16663 | 23 ft | 24 kts | 85° |
| 2026-05-04 03:53 | -8.74793 | 115.16781 | 25 ft | 14 kts | 61° |
| 2026-05-04 03:53 | -8.74751 | 115.16843 | 25 ft | 8 kts | 37° |
| 2026-05-04 03:53 | -8.74706 | 115.16857 | 27 ft | 6 kts | 3° |
| 2026-05-04 03:53 | -8.74672 | 115.16828 | 28 ft | 9 kts | 287° |
| 2026-05-04 03:54 | -8.74669 | 115.16753 | 28 ft | 12 kts | 265° |
| 2026-05-04 03:54 | -8.74676 | 115.16659 | 28 ft | 14 kts | 266° |
| 2026-05-04 03:54 | -8.74678 | 115.16549 | 28 ft | 16 kts | 270° |
| 2026-05-04 03:54 | -8.74682 | 115.16433 | 29 ft | 17 kts | 269° |
| 2026-05-04 03:55 | -8.74687 | 115.16324 | 29 ft | 16 kts | 265° |
| 2026-05-04 03:55 | -8.74694 | 115.16211 | 29 ft | 14 kts | 268° |
| 2026-05-04 03:55 | -8.74688 | 115.16165 | 29 ft | 0 kts | 319° |
| 2026-05-04 03:55 | -8.74686 | 115.16167 | 29 ft | 0 kts | 356° |
| 2026-05-04 03:56 | -8.74682 | 115.16169 | 29 ft | 2 kts | 26° |
| 2026-05-04 03:56 | -8.74663 | 115.16172 | 29 ft | 3 kts | 2° |
| 2026-05-04 03:56 | -8.74626 | 115.16172 | 29 ft | 0 kts | 358° |